Time;durP1;ratioP1;P1;durP2;ratioP2;P2;SDS_P1;SDS_P2;PMS_P1;PMS_P2;Temp;Humidity;BMP_temperature;BMP_pressure;BME280_temperature;BME280_humidity;BME280_pressure;Samples;Min_cycle;Max_cycle;Signal;HPM_P1;HPM_P2
2022/01/06 00:00:28;;;;;;;;;;;;;;;21.57;39.12;99837.94;105382;1299;61267;-82
2022/01/06 00:03:03;;;;;;;;;;;;;;;21.57;39.23;99830.25;105275;1299;74167;-83
2022/01/06 00:05:33;;;;;;;;;;;;;;;21.57;39.12;99830.80;105390;1299;75035;-86
2022/01/06 00:08:01;;;;;;;;;;;;;;;21.57;39.06;99826.89;105320;1299;61225;-82
2022/01/06 00:10:33;;;;;;;;;;;;;;;21.57;39.17;99836.67;105373;1299;61903;-86
2022/01/06 00:13:05;;;;;;;;;;;;;;;21.57;39.20;99829.89;105306;1299;72664;-81
2022/01/06 00:18:19;;;;;;;;;;;;;;;21.58;39.07;99835.75;105312;1299;61256;-87
2022/01/06 00:25:57;;;;;;;;;;;;;;;21.57;39.22;99839.90;105289;1299;61366;-83
2022/01/06 00:28:26;;;;;;;;;;;;;;;21.57;39.02;99841.16;105293;1299;61140;-84
2022/01/06 00:30:51;;;;;;;;;;;;;;;21.58;39.25;99836.45;105224;1299;61266;-85
2022/01/06 00:33:19;;;;;;;;;;;;;;;21.57;39.06;99828.64;105292;1299;61358;-82
2022/01/06 00:35:49;;;;;;;;;;;;;;;21.57;39.09;99829.86;105304;1299;75690;-82
2022/01/06 00:38:26;;;;;;;;;;;;;;;21.57;39.21;99833.85;105317;1298;61371;-84
2022/01/06 00:41:04;;;;;;;;;;;;;;;;;;;;;
2022/01/06 00:43:30;;;;;;;;;;;;;;;21.57;39.04;99833.45;105372;1299;73868;-82
2022/01/06 00:45:56;;;;;;;;;;;;;;;21.57;39.23;99835.23;105393;1299;61371;-82
2022/01/06 00:48:31;;;;;;;;;;;;;;;21.57;39.32;99831.48;105407;1299;61136;-80
2022/01/06 00:51:09;;;;;;;;;;;;;;;21.58;39.28;99841.46;105417;1297;61923;-83
2022/01/06 00:53:37;;;;;;;;;;;;;;;21.58;39.11;99835.38;105400;1298;72945;-83
2022/01/06 00:56:08;;;;;;;;;;;;;;;21.58;39.17;99836.98;105400;1299;74790;-84
2022/01/06 00:58:54;;;;;;;;;;;;;;;21.58;39.12;99831.81;105166;1299;61146;-82
2022/01/06 01:01:20;;;;;;;;;;;;;;;21.58;39.25;99832.15;104885;1306;61624;-82
2022/01/06 01:03:54;;;;;;;;;;;;;;;21.58;39.14;99838.96;104702;1305;73811;-82
2022/01/06 01:06:20;;;;;;;;;;;;;;;21.57;39.24;99835.94;104844;1305;61361;-86
2022/01/06 01:08:49;;;;;;;;;;;;;;;21.58;39.35;99845.23;104730;1305;61310;-83
2022/01/06 01:11:17;;;;;;;;;;;;;;;21.58;39.06;99839.86;104850;1305;61299;-82
2022/01/06 01:13:56;;;;;;;;;;;;;;;21.58;39.10;99831.98;104834;1305;61257;-82
2022/01/06 01:16:27;;;;;;;;;;;;;;;21.57;39.24;99832.75;104831;1305;76013;-83
2022/01/06 01:18:55;;;;;;;;;;;;;;;21.57;39.28;99830.09;104854;1305;61270;-86
2022/01/06 01:21:27;;;;;;;;;;;;;;;21.57;39.17;99834.35;104842;1305;61201;-86
2022/01/06 01:23:56;;;;;;;;;;;;;;;21.56;39.27;99831.34;104888;1306;74089;-79
2022/01/06 01:26:31;;;;;;;;;;;;;;;21.56;39.28;99826.20;104465;1305;72518;-84
2022/01/06 01:28:56;;;;;;;;;;;;;;;21.57;39.12;99824.53;104840;1305;62987;-83
2022/01/06 01:34:07;;;;;;;;;;;;;;;21.57;39.19;99835.28;104843;1305;74005;-84
2022/01/06 01:36:37;;;;;;;;;;;;;;;21.57;39.03;99834.36;104830;1305;74792;-81
2022/01/06 01:39:06;;;;;;;;;;;;;;;21.57;39.01;99831.50;104943;1305;61307;-84
2022/01/06 01:42:00;;;;;;;;;;;;;;;21.57;39.19;99840.99;104337;1311;61293;-83
2022/01/06 01:44:34;;;;;;;;;;;;;;;21.57;39.15;99847.95;104317;1313;73947;-85
2022/01/06 01:47:03;;;;;;;;;;;;;;;21.57;38.94;99849.23;104377;1311;76599;-82
2022/01/06 01:49:45;;;;;;;;;;;;;;;21.57;39.22;99844.58;104340;1311;61314;-84
2022/01/06 01:52:11;;;;;;;;;;;;;;;21.57;39.20;99842.96;104332;1313;62492;-79
2022/01/06 01:54:41;;;;;;;;;;;;;;;21.57;38.96;99842.06;104334;1311;72750;-81
2022/01/06 01:57:22;;;;;;;;;;;;;;;21.57;39.07;99842.06;104238;1311;74590;-82
2022/01/06 01:59:56;;;;;;;;;;;;;;;21.57;39.18;99843.45;104321;1311;61438;-79
2022/01/06 02:02:32;;;;;;;;;;;;;;;21.58;39.18;99842.55;104357;1311;61474;-82
2022/01/06 02:05:07;;;;;;;;;;;;;;;21.57;39.23;99841.30;104309;1313;74220;-82
2022/01/06 02:07:45;;;;;;;;;;;;;;;21.58;39.22;99847.40;104330;1311;75921;-83
2022/01/06 02:10:14;;;;;;;;;;;;;;;21.58;38.86;99847.55;104247;1311;61418;-87
2022/01/06 02:12:47;;;;;;;;;;;;;;;21.58;38.92;99844.50;104371;1311;62848;-83
2022/01/06 02:15:14;;;;;;;;;;;;;;;21.58;38.93;99846.11;104313;1311;72901;-88
2022/01/06 02:17:52;;;;;;;;;;;;;;;21.57;39.17;99842.23;104320;1313;76147;-87
2022/01/06 02:20:18;;;;;;;;;;;;;;;21.57;38.91;99843.51;104725;1305;61206;-82
2022/01/06 02:22:51;;;;;;;;;;;;;;;21.57;39.31;99845.09;104858;1305;61283;-83
2022/01/06 02:25:37;;;;;;;;;;;;;;;21.57;38.94;99849.95;104869;1304;73739;-82
2022/01/06 02:28:11;;;;;;;;;;;;;;;21.57;38.87;99847.27;104884;1305;74409;-86
2022/01/06 02:30:48;;;;;;;;;;;;;;;;;;;;;
2022/01/06 02:33:32;;;;;;;;;;;;;;;21.56;38.97;99839.96;104908;1305;61300;-83
2022/01/06 02:36:01;;;;;;;;;;;;;;;21.56;39.09;99841.61;104886;1304;72835;-83
2022/01/06 02:38:37;;;;;;;;;;;;;;;;;;;;;
2022/01/06 02:41:09;;;;;;;;;;;;;;;21.56;38.98;99843.39;104854;1304;61281;-82
2022/01/06 02:43:35;;;;;;;;;;;;;;;21.56;39.07;99835.14;104954;1306;60784;-84
2022/01/06 02:46:12;;;;;;;;;;;;;;;21.56;39.15;99830.30;104937;1305;72695;-82
2022/01/06 02:48:38;;;;;;;;;;;;;;;21.56;38.99;99828.91;104808;1304;75671;-82
2022/01/06 02:51:04;;;;;;;;;;;;;;;21.56;39.05;99828.18;104849;1305;61282;-82
2022/01/06 02:54:16;;;;;;;;;;;;;;;21.56;38.86;99829.23;104784;1305;61750;-84
2022/01/06 02:56:54;;;;;;;;;;;;;;;21.56;38.83;99835.13;104427;1311;74109;-83
2022/01/06 02:59:23;;;;;;;;;;;;;;;21.56;38.84;99835.30;104342;1311;74603;-84
2022/01/06 03:01:51;;;;;;;;;;;;;;;21.57;39.12;99838.33;104444;1311;61181;-83
2022/01/06 03:04:27;;;;;;;;;;;;;;;21.56;39.12;99841.02;104394;1312;61880;-88
2022/01/06 03:07:01;;;;;;;;;;;;;;;21.57;38.87;99837.94;104359;1312;72872;-82
2022/01/06 03:09:36;;;;;;;;;;;;;;;21.57;39.08;99842.09;104441;1311;75973;-84
2022/01/06 03:12:09;;;;;;;;;;;;;;;21.57;38.95;99846.38;104345;1311;61669;-84
2022/01/06 03:14:37;;;;;;;;;;;;;;;21.56;38.97;99846.58;104248;1314;61272;-84
2022/01/06 03:17:06;;;;;;;;;;;;;;;21.57;39.05;99851.23;104199;1314;74493;-86
2022/01/06 03:19:38;;;;;;;;;;;;;;;21.56;39.00;99854.46;104199;1316;73790;-79
2022/01/06 03:22:13;;;;;;;;;;;;;;;21.56;38.88;99853.22;104175;1314;61297;-81
2022/01/06 03:24:53;;;;;;;;;;;;;;;;;;;;;
2022/01/06 03:27:18;;;;;;;;;;;;;;;21.56;39.13;99856.64;104230;1314;72538;-82
2022/01/06 03:29:44;;;;;;;;;;;;;;;21.56;39.02;99863.29;104250;1314;61302;-85
2022/01/06 03:32:14;;;;;;;;;;;;;;;21.56;38.87;99866.13;103982;1314;459755;-84
2022/01/06 03:34:42;;;;;;;;;;;;;;;21.56;38.92;99870.04;104469;1310;61728;-83
2022/01/06 03:37:16;;;;;;;;;;;;;;;21.56;38.80;99870.04;104534;1308;61269;-83
2022/01/06 03:39:51;;;;;;;;;;;;;;;21.56;38.72;99872.42;104742;1305;75726;-86
2022/01/06 03:42:19;;;;;;;;;;;;;;;21.56;38.71;99870.97;104731;1305;61419;-83
2022/01/06 03:44:44;;;;;;;;;;;;;;;21.55;38.83;99876.41;104703;1306;61390;-84
2022/01/06 03:47:19;;;;;;;;;;;;;;;21.56;38.92;99880.30;104876;1306;61282;-83
2022/01/06 03:49:54;;;;;;;;;;;;;;;21.55;38.92;99883.19;104704;1306;75747;-84
2022/01/06 03:52:20;;;;;;;;;;;;;;;21.55;38.87;99887.89;104730;1305;61588;-82
2022/01/06 03:54:51;;;;;;;;;;;;;;;21.55;38.93;99889.86;104852;1304;61582;-82
2022/01/06 03:57:17;;;;;;;;;;;;;;;21.55;38.80;99890.91;105138;1299;74536;-84
2022/01/06 03:59:43;;;;;;;;;;;;;;;21.55;38.82;99892.38;105218;1299;61339;-83
2022/01/06 04:02:13;;;;;;;;;;;;;;;21.55;38.90;99902.02;105363;1298;61279;-78
2022/01/06 04:04:48;;;;;;;;;;;;;;;21.54;38.82;99905.34;105239;1299;61460;-83
2022/01/06 04:07:16;;;;;;;;;;;;;;;21.55;38.88;99906.02;105238;1299;72838;-82
2022/01/06 04:09:44;;;;;;;;;;;;;;;21.54;38.78;99906.05;105210;1299;74903;-84
2022/01/06 04:12:24;;;;;;;;;;;;;;;21.55;38.85;99912.05;105252;1298;61050;-86
2022/01/06 04:14:50;;;;;;;;;;;;;;;21.55;38.81;99908.33;105401;1299;61604;-84
2022/01/06 04:17:38;;;;;;;;;;;;;;;21.55;38.96;99905.41;105386;1298;73861;-83
2022/01/06 04:20:12;;;;;;;;;;;;;;;21.55;38.80;99904.40;105381;1299;75788;-84
2022/01/06 04:22:40;;;;;;;;;;;;;;;21.55;38.90;99903.32;105257;1299;61353;-82
2022/01/06 04:25:15;;;;;;;;;;;;;;;21.55;38.81;99905.29;105307;1299;61279;-83
2022/01/06 04:27:57;;;;;;;;;;;;;;;21.55;38.84;99904.23;105269;1299;73751;-86
2022/01/06 04:30:39;;;;;;;;;;;;;;;21.55;38.75;99908.88;105267;1298;75704;-82
2022/01/06 04:33:07;;;;;;;;;;;;;;;21.55;38.79;99908.86;105406;1299;61275;-84
2022/01/06 04:35:36;;;;;;;;;;;;;;;21.55;38.67;99914.02;105259;1299;61305;-83
2022/01/06 04:38:04;;;;;;;;;;;;;;;21.55;38.81;99918.30;105297;1299;72880;-83
2022/01/06 04:41:00;;;;;;;;;;;;;;;;;;;;;
2022/01/06 04:43:49;;;;;;;;;;;;;;;21.54;38.79;99919.64;105310;1299;61259;-82
2022/01/06 04:46:19;;;;;;;;;;;;;;;21.54;38.61;99921.43;105290;1299;61272;-84
2022/01/06 04:48:52;;;;;;;;;;;;;;;21.55;38.93;99921.21;105322;1299;73779;-81
2022/01/06 04:51:32;;;;;;;;;;;;;;;21.55;38.78;99923.52;105275;1299;75744;-87
2022/01/06 04:53:58;;;;;;;;;;;;;;;21.55;38.73;99927.83;105361;1299;61154;-78
2022/01/06 04:56:26;;;;;;;;;;;;;;;21.55;38.67;99929.97;105405;1298;61406;-85
2022/01/06 04:58:55;;;;;;;;;;;;;;;21.54;38.79;99931.46;105319;1300;72779;-87
2022/01/06 05:01:20;;;;;;;;;;;;;;;21.53;38.68;99935.50;105211;1299;75130;-84
2022/01/06 05:03:46;;;;;;;;;;;;;;;21.52;38.49;99934.65;105299;1299;61275;-86
2022/01/06 05:06:12;;;;;;;;;;;;;;;21.52;38.54;99935.05;105285;1299;61249;-83
2022/01/06 05:09:06;;;;;;;;;;;;;;;21.51;38.32;99939.90;105354;1299;71449;-80
2022/01/06 05:11:32;;;;;;;;;;;;;;;21.51;38.17;99935.83;105279;1299;75081;-84
2022/01/06 05:14:18;;;;;;;;;;;;;;;21.51;38.14;99936.91;104648;1305;63333;-84
2022/01/06 05:16:44;;;;;;;;;;;;;;;21.51;38.15;99936.40;104690;1305;61296;-85
2022/01/06 05:19:18;;;;;;;;;;;;;;;21.51;38.06;99936.05;104527;1306;72519;-83
2022/01/06 05:21:52;;;;;;;;;;;;;;;21.52;37.95;99943.66;104619;1307;75919;-81
2022/01/06 05:24:27;;;;;;;;;;;;;;;21.51;37.78;99940.35;104511;1308;61268;-81
2022/01/06 05:27:10;;;;;;;;;;;;;;;21.51;37.70;99944.09;104541;1305;61197;-81
2022/01/06 05:29:37;;;;;;;;;;;;;;;21.51;37.73;99937.59;104494;1307;73646;-81
2022/01/06 05:32:03;;;;;;;;;;;;;;;21.53;37.81;99933.19;104787;1305;61253;-86
2022/01/06 05:34:34;;;;;;;;;;;;;;;21.53;37.82;99935.15;104500;1307;61398;-85
2022/01/06 05:37:02;;;;;;;;;;;;;;;21.52;37.69;99929.09;104529;1306;61490;-83
2022/01/06 05:39:27;;;;;;;;;;;;;;;21.49;37.50;99932.43;104461;1306;74126;-81
2022/01/06 05:41:56;;;;;;;;;;;;;;;21.45;37.85;99936.75;104401;1306;61301;-81
2022/01/06 05:44:21;;;;;;;;;;;;;;;21.36;37.86;99934.25;104212;1307;61197;-81
2022/01/06 05:46:47;;;;;;;;;;;;;;;21.29;37.79;99939.85;104326;1305;61320;-80
2022/01/06 05:49:16;;;;;;;;;;;;;;;21.18;37.61;99933.80;104098;1307;61293;-80
2022/01/06 05:51:42;;;;;;;;;;;;;;;21.06;37.46;99941.85;104464;1299;75918;-83
2022/01/06 05:54:07;;;;;;;;;;;;;;;20.95;37.35;99943.14;105021;1299;61404;-81
2022/01/06 05:56:33;;;;;;;;;;;;;;;20.84;37.26;99945.44;105292;1297;61266;-80
2022/01/06 05:58:58;;;;;;;;;;;;;;;20.75;37.20;99948.90;104770;1297;62596;-80
2022/01/06 06:01:24;;;;;;;;;;;;;;;20.65;37.08;99951.66;105013;1299;61259;-80
2022/01/06 06:03:58;;;;;;;;;;;;;;;20.56;36.95;99960.09;104829;1297;75855;-80
2022/01/06 06:06:24;;;;;;;;;;;;;;;20.53;37.05;99954.76;105153;1299;61272;-82
2022/01/06 06:08:49;;;;;;;;;;;;;;;20.53;36.79;99958.31;105053;1298;61478;-82
2022/01/06 06:11:15;;;;;;;;;;;;;;;20.55;36.87;99961.78;104962;1299;59510;-80
2022/01/06 06:13:40;;;;;;;;;;;;;;;20.55;36.66;99956.58;104835;1299;61290;-81
2022/01/06 06:16:06;;;;;;;;;;;;;;;20.55;36.77;99960.98;105197;1299;61218;-81
2022/01/06 06:18:31;;;;;;;;;;;;;;;20.54;36.78;99961.48;105100;1299;61109;-81
2022/01/06 06:20:57;;;;;;;;;;;;;;;20.54;37.09;99968.31;105059;1299;61346;-81
2022/01/06 06:23:22;;;;;;;;;;;;;;;20.53;37.31;99972.63;105046;1299;61285;-81
2022/01/06 06:25:48;;;;;;;;;;;;;;;20.54;37.53;99974.02;105049;1299;61863;-80
2022/01/06 06:28:13;;;;;;;;;;;;;;;20.54;37.60;99978.30;105123;1299;61296;-81
2022/01/06 06:30:39;;;;;;;;;;;;;;;20.56;37.80;99978.11;105027;1299;61176;-80
2022/01/06 06:33:09;;;;;;;;;;;;;;;20.59;37.74;99976.98;105164;1297;61267;-80
2022/01/06 06:35:34;;;;;;;;;;;;;;;20.61;37.52;99983.09;105172;1297;72658;-80
2022/01/06 06:38:03;;;;;;;;;;;;;;;20.61;37.61;99988.05;105000;1299;61325;-82
2022/01/06 06:40:28;;;;;;;;;;;;;;;20.60;37.80;99992.09;105118;1299;61275;-80
2022/01/06 06:42:54;;;;;;;;;;;;;;;20.57;37.45;99992.88;105123;1299;61336;-84
2022/01/06 06:45:19;;;;;;;;;;;;;;;20.54;37.72;99995.46;105215;1298;61245;-81
2022/01/06 06:47:51;;;;;;;;;;;;;;;20.51;37.61;99997.27;105229;1299;75996;-80
2022/01/06 06:50:21;;;;;;;;;;;;;;;20.50;37.42;99998.30;105154;1298;61275;-83
2022/01/06 06:52:47;;;;;;;;;;;;;;;20.48;37.37;100000.06;105068;1299;61532;-82
2022/01/06 06:55:16;;;;;;;;;;;;;;;20.42;37.28;100001.41;104983;1299;61391;-81
2022/01/06 06:57:41;;;;;;;;;;;;;;;20.34;37.23;100007.47;105071;1299;74829;-79
2022/01/06 07:00:07;;;;;;;;;;;;;;;20.23;37.01;100010.95;104982;1297;61231;-82
2022/01/06 07:02:32;;;;;;;;;;;;;;;20.20;37.12;100015.48;104980;1299;61325;-80
2022/01/06 07:04:59;;;;;;;;;;;;;;;20.23;37.20;100022.77;105051;1299;60075;-80
2022/01/06 07:07:26;;;;;;;;;;;;;;;20.27;37.08;100028.13;105085;1299;61207;-81
2022/01/06 07:09:51;;;;;;;;;;;;;;;20.33;37.00;100028.06;104885;1297;61451;-80
2022/01/06 07:12:17;;;;;;;;;;;;;;;20.39;36.93;100030.08;105146;1297;61272;-80
2022/01/06 07:14:42;;;;;;;;;;;;;;;20.44;36.72;100035.21;105210;1298;61293;-80
2022/01/06 07:17:08;;;;;;;;;;;;;;;20.50;36.79;100037.62;105149;1297;61311;-80
2022/01/06 07:19:33;;;;;;;;;;;;;;;20.54;36.85;100036.20;105071;1299;61244;-80
2022/01/06 07:21:59;;;;;;;;;;;;;;;20.58;36.57;100029.95;104982;1299;61310;-80
2022/01/06 07:24:24;;;;;;;;;;;;;;;20.62;36.58;100033.20;105005;1297;61379;-81
2022/01/06 07:26:50;;;;;;;;;;;;;;;20.66;36.43;100030.98;105095;1297;61226;-80
2022/01/06 07:29:18;;;;;;;;;;;;;;;20.68;36.47;100028.45;104865;1299;61267;-81
2022/01/06 07:31:51;;;;;;;;;;;;;;;20.70;36.33;100027.39;104863;1299;74650;-81
2022/01/06 07:34:18;;;;;;;;;;;;;;;20.73;36.35;100030.19;105015;1298;61253;-82
2022/01/06 07:36:43;;;;;;;;;;;;;;;20.75;36.19;100032.16;104864;1299;61559;-80
2022/01/06 07:39:18;;;;;;;;;;;;;;;20.79;36.25;100038.68;105072;1299;72822;-82
2022/01/06 07:41:43;;;;;;;;;;;;;;;20.82;36.21;100038.29;104992;1299;74651;-80
2022/01/06 07:44:09;;;;;;;;;;;;;;;20.85;36.00;100036.40;105080;1299;61259;-81
2022/01/06 07:46:34;;;;;;;;;;;;;;;20.87;36.03;100039.83;105059;1299;61437;-80
2022/01/06 07:49:01;;;;;;;;;;;;;;;20.90;36.16;100041.41;105079;1299;61281;-82
2022/01/06 07:51:27;;;;;;;;;;;;;;;20.91;35.84;100044.25;105172;1297;61423;-80
2022/01/06 07:53:53;;;;;;;;;;;;;;;20.94;35.96;100043.20;105032;1299;59452;-80
2022/01/06 07:56:18;;;;;;;;;;;;;;;20.96;35.83;100039.46;105171;1298;59320;-80
2022/01/06 07:58:44;;;;;;;;;;;;;;;20.95;35.73;100039.89;104951;1299;61430;-80
2022/01/06 08:01:09;;;;;;;;;;;;;;;20.94;35.77;100037.48;105120;1299;60018;-81
2022/01/06 08:03:35;;;;;;;;;;;;;;;20.95;35.86;100043.30;105120;1298;59984;-80
2022/01/06 08:06:01;;;;;;;;;;;;;;;20.96;35.89;100040.91;104835;1298;61384;-80
2022/01/06 08:08:27;;;;;;;;;;;;;;;20.97;35.81;100043.48;104873;1299;61297;-84
2022/01/06 08:10:52;;;;;;;;;;;;;;;20.99;35.79;100043.70;105020;1297;61250;-81
2022/01/06 08:13:18;;;;;;;;;;;;;;;21.00;35.77;100053.03;104843;1299;74224;-80
2022/01/06 08:16:05;;;;;;;;;;;;;;;21.02;35.88;100055.43;104830;1298;73588;-81
2022/01/06 08:18:31;;;;;;;;;;;;;;;21.02;35.79;100059.86;104925;1299;61358;-81
2022/01/06 08:20:56;;;;;;;;;;;;;;;21.02;35.77;100058.62;104886;1299;59784;-83
2022/01/06 08:23:22;;;;;;;;;;;;;;;21.01;35.76;100059.94;104998;1299;60157;-81
2022/01/06 08:25:47;;;;;;;;;;;;;;;20.99;35.74;100062.41;104821;1299;61946;-79
2022/01/06 08:28:17;;;;;;;;;;;;;;;20.99;35.67;100063.18;104880;1299;61310;-81
2022/01/06 08:30:42;;;;;;;;;;;;;;;20.99;35.74;100062.30;104910;1298;61333;-79
2022/01/06 08:33:08;;;;;;;;;;;;;;;20.97;35.59;100068.30;105020;1297;61235;-81
2022/01/06 08:35:33;;;;;;;;;;;;;;;20.96;35.84;100069.09;104899;1299;61394;-81
2022/01/06 08:38:01;;;;;;;;;;;;;;;20.96;35.70;100066.77;104852;1300;61287;-80
2022/01/06 08:40:27;;;;;;;;;;;;;;;20.96;35.54;100067.88;104827;1299;61177;-80
2022/01/06 08:42:53;;;;;;;;;;;;;;;20.96;35.56;100062.88;105149;1298;61273;-80
2022/01/06 08:45:18;;;;;;;;;;;;;;;20.96;35.46;100058.61;104941;1297;61419;-80
2022/01/06 08:47:44;;;;;;;;;;;;;;;20.96;35.52;100060.76;104890;1299;61308;-80
2022/01/06 08:50:11;;;;;;;;;;;;;;;20.95;35.64;100057.93;104811;1299;61437;-80
2022/01/06 08:52:36;;;;;;;;;;;;;;;20.94;35.56;100059.27;104925;1298;59674;-80
2022/01/06 08:55:02;;;;;;;;;;;;;;;20.92;35.47;100055.26;104624;1298;61183;-80
2022/01/06 08:57:28;;;;;;;;;;;;;;;20.92;35.39;100061.73;104914;1297;72719;-80
2022/01/06 08:59:54;;;;;;;;;;;;;;;20.91;35.42;100059.48;104837;1299;61272;-81
2022/01/06 09:02:19;;;;;;;;;;;;;;;20.91;35.39;100058.27;104981;1299;61490;-82
2022/01/06 09:04:46;;;;;;;;;;;;;;;20.91;35.49;100050.94;105049;1297;61341;-82
2022/01/06 09:07:11;;;;;;;;;;;;;;;20.91;35.33;100047.49;105033;1297;61313;-80
2022/01/06 09:09:39;;;;;;;;;;;;;;;20.91;35.43;100045.72;105041;1298;61376;-81
2022/01/06 09:12:06;;;;;;;;;;;;;;;20.91;35.43;100046.59;105183;1300;61248;-81
2022/01/06 09:14:34;;;;;;;;;;;;;;;20.91;35.38;100049.27;105165;1297;61247;-81
2022/01/06 09:17:00;;;;;;;;;;;;;;;20.91;35.33;100048.19;105030;1299;61162;-82
2022/01/06 09:19:26;;;;;;;;;;;;;;;20.92;35.51;100049.19;105057;1299;61259;-81
2022/01/06 09:21:51;;;;;;;;;;;;;;;20.93;35.50;100046.30;105000;1299;61231;-81
2022/01/06 09:24:18;;;;;;;;;;;;;;;20.93;35.61;100044.50;105057;1299;61286;-81
2022/01/06 09:26:43;;;;;;;;;;;;;;;20.93;35.38;100045.17;104970;1300;61222;-81
2022/01/06 09:29:09;;;;;;;;;;;;;;;20.94;35.31;100042.46;105009;1299;61267;-81
2022/01/06 09:31:36;;;;;;;;;;;;;;;20.94;35.32;100035.30;105018;1298;75882;-82
2022/01/06 09:34:02;;;;;;;;;;;;;;;20.95;35.35;100033.59;105178;1298;61292;-82
2022/01/06 09:36:28;;;;;;;;;;;;;;;20.96;35.17;100028.68;105021;1297;61448;-82
2022/01/06 09:38:56;;;;;;;;;;;;;;;20.99;35.27;100033.78;105008;1298;61334;-82
2022/01/06 09:41:22;;;;;;;;;;;;;;;21.02;35.20;100032.46;105030;1299;74826;-82
2022/01/06 09:43:49;;;;;;;;;;;;;;;21.05;35.21;100032.77;105035;1299;61282;-82
2022/01/06 09:46:15;;;;;;;;;;;;;;;21.08;35.26;100033.39;105077;1299;61472;-82
2022/01/06 09:48:42;;;;;;;;;;;;;;;21.12;35.12;100032.18;105088;1299;59463;-82
2022/01/06 09:51:08;;;;;;;;;;;;;;;21.14;35.17;100036.30;105063;1299;61335;-81
2022/01/06 09:53:34;;;;;;;;;;;;;;;21.17;35.17;100036.82;105098;1298;61223;-82
2022/01/06 09:55:59;;;;;;;;;;;;;;;21.19;35.14;100036.25;104981;1299;61270;-80
2022/01/06 09:58:26;;;;;;;;;;;;;;;21.22;35.14;100036.70;105019;1298;61426;-81
2022/01/06 10:00:52;;;;;;;;;;;;;;;21.25;35.12;100037.95;105133;1299;61375;-81
2022/01/06 10:03:18;;;;;;;;;;;;;;;21.25;35.22;100037.58;104908;1299;61295;-81
2022/01/06 10:05:45;;;;;;;;;;;;;;;21.26;35.36;100039.08;105058;1299;61166;-81
2022/01/06 10:08:11;;;;;;;;;;;;;;;21.27;35.33;100037.36;105782;1299;59565;-81
2022/01/06 10:10:38;;;;;;;;;;;;;;;21.29;35.32;100041.90;105067;1299;61455;-81
2022/01/06 10:13:09;;;;;;;;;;;;;;;21.31;35.42;100038.69;105138;1299;60018;-80
2022/01/06 10:15:39;;;;;;;;;;;;;;;21.32;35.41;100038.61;105138;1299;61284;-80
2022/01/06 10:18:14;;;;;;;;;;;;;;;21.34;35.46;100033.05;105783;1297;71595;-80
2022/01/06 10:20:39;;;;;;;;;;;;;;;21.36;35.78;100029.51;105070;1297;74633;-81
2022/01/06 10:23:09;;;;;;;;;;;;;;;21.38;35.87;100029.83;105084;1299;62023;-80
2022/01/06 10:25:38;;;;;;;;;;;;;;;21.39;36.00;100024.88;105203;1299;61300;-81
2022/01/06 10:28:13;;;;;;;;;;;;;;;21.41;36.02;100021.48;105787;1297;73028;-80
2022/01/06 10:30:47;;;;;;;;;;;;;;;21.43;36.06;100022.06;105050;1297;76845;-81
2022/01/06 10:33:13;;;;;;;;;;;;;;;21.45;36.21;100024.41;106037;1299;60525;-81
2022/01/06 10:35:39;;;;;;;;;;;;;;;21.47;36.30;100028.94;105226;1299;59680;-80
2022/01/06 10:38:04;;;;;;;;;;;;;;;21.48;36.09;100022.75;105115;1298;61411;-80
2022/01/06 10:40:31;;;;;;;;;;;;;;;21.50;36.07;100024.01;105063;1299;61342;-81
2022/01/06 10:43:05;;;;;;;;;;;;;;;21.51;36.16;100015.13;105121;1299;59485;-80
2022/01/06 10:45:31;;;;;;;;;;;;;;;21.52;36.28;100015.38;105107;1299;62612;-81
2022/01/06 10:47:57;;;;;;;;;;;;;;;21.53;36.43;100011.07;105985;1297;60291;-80
2022/01/06 10:50:25;;;;;;;;;;;;;;;21.55;36.32;100010.91;105043;1299;59189;-80
2022/01/06 10:52:52;;;;;;;;;;;;;;;21.56;36.29;100008.63;105084;1298;62568;-80
2022/01/06 10:55:19;;;;;;;;;;;;;;;21.58;36.38;100005.10;105087;1297;61315;-80
2022/01/06 10:57:51;;;;;;;;;;;;;;;21.59;36.56;100002.31;105076;1296;72066;-80
2022/01/06 11:00:17;;;;;;;;;;;;;;;21.58;36.56;100004.88;105186;1297;74804;-81
2022/01/06 11:02:42;;;;;;;;;;;;;;;21.57;36.50;100005.89;105124;1297;60877;-80
2022/01/06 11:05:08;;;;;;;;;;;;;;;21.56;36.52;100003.79;105115;1298;61286;-80
2022/01/06 11:07:33;;;;;;;;;;;;;;;21.56;36.58;100000.63;105079;1299;61304;-80
2022/01/06 11:09:59;;;;;;;;;;;;;;;21.57;36.73;100001.24;105072;1299;61289;-80
2022/01/06 11:12:28;;;;;;;;;;;;;;;21.57;36.47;100001.08;105225;1296;74870;-80
2022/01/06 11:14:54;;;;;;;;;;;;;;;21.57;36.62;100003.55;105186;1298;61310;-80
2022/01/06 11:17:21;;;;;;;;;;;;;;;21.57;36.53;99998.88;105022;1299;59865;-81
2022/01/06 11:19:50;;;;;;;;;;;;;;;21.57;36.44;99995.85;106003;1298;73582;-80
2022/01/06 11:22:15;;;;;;;;;;;;;;;21.58;36.57;99995.05;105793;1297;74673;-80
2022/01/06 11:24:50;;;;;;;;;;;;;;;21.59;36.46;99994.41;104938;1300;59472;-80
2022/01/06 11:27:16;;;;;;;;;;;;;;;21.60;36.54;99994.85;105033;1299;61523;-80
2022/01/06 11:29:42;;;;;;;;;;;;;;;21.61;36.51;99997.48;105161;1299;61360;-81
2022/01/06 11:32:18;;;;;;;;;;;;;;;21.61;36.51;99997.14;105100;1299;61354;-81
2022/01/06 11:34:45;;;;;;;;;;;;;;;21.62;36.43;99994.41;105979;1298;59934;-81
2022/01/06 11:37:11;;;;;;;;;;;;;;;21.62;36.53;99991.85;106048;1297;59144;-81
2022/01/06 11:39:37;;;;;;;;;;;;;;;21.64;36.61;99996.34;105911;1299;59143;-81
2022/01/06 11:42:11;;;;;;;;;;;;;;;21.65;36.62;99993.20;105949;1299;60228;-81
2022/01/06 11:44:36;;;;;;;;;;;;;;;21.67;36.80;99987.70;105843;1299;60267;-81
2022/01/06 11:47:02;;;;;;;;;;;;;;;21.68;36.71;99986.86;105904;1298;59360;-81
2022/01/06 11:49:35;;;;;;;;;;;;;;;21.69;36.66;99986.91;105769;1299;61044;-81
2022/01/06 11:52:09;;;;;;;;;;;;;;;21.71;36.82;99991.25;105168;1297;74715;-81
2022/01/06 11:54:47;;;;;;;;;;;;;;;21.72;36.57;99998.50;105169;1299;61266;-81
2022/01/06 11:57:13;;;;;;;;;;;;;;;21.71;36.66;100000.90;104976;1299;60510;-81
2022/01/06 11:59:40;;;;;;;;;;;;;;;21.70;36.64;100005.29;105221;1299;61565;-81
2022/01/06 12:02:07;;;;;;;;;;;;;;;21.69;36.63;100007.00;105249;1299;59868;-81
2022/01/06 12:04:32;;;;;;;;;;;;;;;21.70;36.75;100009.96;105238;1299;61316;-81
2022/01/06 12:07:04;;;;;;;;;;;;;;;21.68;36.52;100011.21;105052;1300;62081;-81
2022/01/06 12:09:30;;;;;;;;;;;;;;;21.67;36.43;100013.15;105080;1297;72023;-81
2022/01/06 12:12:06;;;;;;;;;;;;;;;21.65;36.46;100013.59;105057;1299;61340;-81
2022/01/06 12:14:32;;;;;;;;;;;;;;;21.65;36.40;100016.85;105054;1299;61263;-81
2022/01/06 12:17:01;;;;;;;;;;;;;;;21.65;36.25;100013.27;105078;1299;60035;-81
2022/01/06 12:19:27;;;;;;;;;;;;;;;21.66;35.98;100012.15;105128;1297;73692;-81
2022/01/06 12:21:52;;;;;;;;;;;;;;;21.64;35.83;100014.46;105298;1297;61281;-80
2022/01/06 12:24:17;;;;;;;;;;;;;;;21.63;35.94;100021.16;105182;1299;61307;-81
2022/01/06 12:26:43;;;;;;;;;;;;;;;21.63;36.04;100023.28;105242;1297;59756;-81
2022/01/06 12:29:18;;;;;;;;;;;;;;;21.64;35.88;100022.89;105932;1299;59249;-80
2022/01/06 12:31:44;;;;;;;;;;;;;;;21.63;35.91;100024.16;105995;1297;74631;-81
2022/01/06 12:34:35;;;;;;;;;;;;;;;21.64;35.84;100030.41;106018;1297;59498;-81
2022/01/06 12:37:01;;;;;;;;;;;;;;;21.64;35.80;100026.09;105486;1303;59622;-81
2022/01/06 12:39:27;;;;;;;;;;;;;;;21.65;35.92;100028.90;105421;1303;59525;-81
2022/01/06 12:41:53;;;;;;;;;;;;;;;21.66;35.85;100030.06;105416;1304;60742;-81
2022/01/06 12:44:23;;;;;;;;;;;;;;;21.67;35.68;100035.31;105567;1303;59541;-82
2022/01/06 12:46:49;;;;;;;;;;;;;;;21.68;35.58;100036.67;105079;1305;61666;-80
2022/01/06 12:49:14;;;;;;;;;;;;;;;21.69;35.70;100035.64;104554;1305;61325;-84
2022/01/06 12:51:41;;;;;;;;;;;;;;;21.69;35.70;100037.59;104862;1304;61759;-80
2022/01/06 12:54:13;;;;;;;;;;;;;;;21.70;35.63;100040.45;104740;1303;61530;-80
2022/01/06 12:56:45;;;;;;;;;;;;;;;21.69;35.44;100039.09;104306;1305;61777;-80
2022/01/06 12:59:11;;;;;;;;;;;;;;;21.67;35.65;100044.40;105501;1304;72747;-81